createdAt,value
2023-04-16T00:00:29.990Z,5.89
2023-04-16T00:01:30.006Z,5.91
2023-04-16T00:02:30.089Z,5.90
2023-04-16T00:03:30.429Z,5.89
2023-04-16T00:04:30.125Z,5.87
2023-04-16T00:05:30.078Z,5.87
2023-04-16T00:06:30.083Z,5.86
2023-04-16T00:07:30.104Z,5.84
2023-04-16T00:08:30.114Z,5.86
2023-04-16T00:09:30.145Z,5.87
2023-04-16T00:10:30.145Z,5.87
2023-04-16T00:11:30.170Z,5.84
2023-04-16T00:12:30.189Z,5.86
2023-04-16T00:13:30.210Z,5.84
2023-04-16T00:14:30.222Z,5.84
2023-04-16T00:15:30.230Z,5.86
2023-04-16T00:16:30.347Z,5.86
2023-04-16T00:17:30.327Z,5.83
2023-04-16T00:18:30.298Z,5.83
2023-04-16T00:19:30.322Z,5.83
2023-04-16T00:20:30.331Z,5.84
2023-04-16T00:21:30.345Z,5.84
2023-04-16T00:22:30.359Z,5.84
2023-04-16T00:23:30.375Z,5.84
2023-04-16T00:24:30.395Z,5.84
2023-04-16T00:25:30.417Z,5.86
2023-04-16T00:26:30.429Z,5.86
2023-04-16T00:27:30.438Z,5.86
2023-04-16T00:28:30.452Z,5.82
2023-04-16T00:29:30.478Z,5.82
2023-04-16T00:30:30.489Z,5.82
2023-04-16T00:31:30.698Z,5.82
2023-04-16T00:32:30.557Z,5.83
2023-04-16T00:33:30.548Z,5.82
2023-04-16T00:34:30.555Z,5.83
2023-04-16T00:35:30.573Z,5.84
2023-04-16T00:36:30.598Z,5.84
2023-04-16T00:37:30.621Z,5.84
2023-04-16T00:38:30.656Z,5.82
2023-04-16T00:39:30.644Z,5.84
2023-04-16T00:40:30.654Z,5.84
2023-04-16T00:41:30.668Z,5.84
2023-04-16T00:42:30.681Z,5.84
2023-04-16T00:43:30.731Z,5.87
2023-04-16T00:44:30.731Z,5.87
2023-04-16T00:45:30.741Z,5.89
2023-04-16T00:46:30.799Z,5.89
2023-04-16T00:47:30.847Z,5.84
2023-04-16T00:48:30.808Z,5.86
2023-04-16T00:49:30.813Z,5.86
2023-04-16T00:50:30.823Z,5.86
2023-04-16T00:51:30.856Z,5.84
2023-04-16T00:52:30.852Z,5.84
2023-04-16T00:53:30.896Z,5.83
2023-04-16T00:54:30.888Z,5.84
2023-04-16T00:55:30.910Z,5.83
2023-04-16T00:56:30.918Z,5.82
2023-04-16T00:57:30.926Z,5.82
2023-04-16T00:58:30.964Z,5.83
2023-04-16T00:59:30.962Z,5.83
2023-04-16T01:00:30.986Z,5.86
2023-04-16T01:01:31.051Z,5.87
2023-04-16T01:02:31.113Z,5.87
2023-04-16T01:03:31.300Z,5.87
2023-04-16T01:04:31.254Z,5.84
2023-04-16T01:05:31.060Z,5.84
2023-04-16T01:06:31.078Z,5.86
2023-04-16T01:07:31.089Z,5.83
2023-04-16T01:08:31.148Z,5.80
2023-04-16T01:09:31.131Z,5.80
2023-04-16T01:10:31.144Z,5.82
2023-04-16T01:11:31.153Z,5.83
2023-04-16T01:12:31.184Z,5.82
2023-04-16T01:13:31.214Z,5.82
2023-04-16T01:14:31.216Z,5.82
2023-04-16T01:15:31.225Z,5.80
2023-04-16T01:16:31.253Z,5.82
2023-04-16T01:17:31.272Z,5.83
2023-04-16T01:18:31.308Z,5.84
2023-04-16T01:19:31.307Z,5.83
2023-04-16T01:20:31.327Z,5.83
2023-04-16T01:21:31.340Z,5.84
2023-04-16T01:22:31.361Z,5.84
2023-04-16T01:23:31.393Z,5.83
2023-04-16T01:24:31.397Z,5.84
2023-04-16T01:25:31.409Z,5.84
2023-04-16T01:26:31.454Z,5.84
2023-04-16T01:27:31.460Z,5.86
2023-04-16T01:28:31.494Z,5.87
2023-04-16T01:29:31.484Z,5.87
2023-04-16T01:30:31.496Z,5.87
2023-04-16T01:31:31.546Z,5.89
2023-04-16T01:32:31.579Z,5.90
2023-04-16T01:33:31.579Z,5.89
2023-04-16T01:34:31.627Z,5.89
2023-04-16T01:35:31.607Z,5.89
2023-04-16T01:36:31.619Z,5.89
2023-04-16T01:37:31.634Z,5.87
2023-04-16T01:38:31.658Z,5.87
2023-04-16T01:39:31.671Z,5.87
2023-04-16T01:40:31.706Z,5.87
2023-04-16T01:41:31.706Z,5.89
2023-04-16T01:42:31.719Z,5.89
2023-04-16T01:43:31.726Z,5.87
2023-04-16T01:44:31.744Z,5.89
2023-04-16T01:45:31.753Z,5.89
2023-04-16T01:46:31.872Z,5.84
2023-04-16T01:47:31.852Z,5.87
2023-04-16T01:48:31.839Z,5.87
2023-04-16T01:49:31.838Z,5.84
2023-04-16T01:50:31.868Z,5.80
2023-04-16T01:51:31.880Z,5.84
2023-04-16T01:52:31.896Z,5.84
2023-04-16T01:53:31.936Z,5.86
2023-04-16T01:54:31.926Z,5.86
2023-04-16T01:55:31.954Z,5.89
2023-04-16T01:56:31.965Z,5.89
2023-04-16T01:57:31.985Z,5.89
2023-04-16T01:58:32.026Z,5.90
2023-04-16T01:59:32.041Z,5.87
2023-04-16T02:00:32.066Z,5.87
2023-04-16T02:01:32.109Z,5.87
2023-04-16T02:02:32.191Z,5.87
2023-04-16T02:03:32.245Z,5.86
2023-04-16T02:04:32.099Z,5.86
2023-04-16T02:05:32.121Z,5.89
2023-04-16T02:06:32.143Z,5.89
2023-04-16T02:07:32.167Z,5.90
2023-04-16T02:08:32.182Z,5.90
2023-04-16T02:09:32.191Z,5.91
2023-04-16T02:10:32.204Z,5.94
2023-04-16T02:11:32.230Z,5.94
2023-04-16T02:12:32.246Z,5.98
2023-04-16T02:13:32.277Z,5.98
2023-04-16T02:14:32.273Z,5.97
2023-04-16T02:15:32.298Z,5.97
2023-04-16T02:16:32.337Z,5.94
2023-04-16T02:17:32.360Z,5.97
2023-04-16T02:18:32.393Z,5.98
2023-04-16T02:19:32.365Z,5.99
2023-04-16T02:20:32.384Z,5.99
2023-04-16T02:21:32.403Z,5.94
2023-04-16T02:22:32.420Z,5.94
2023-04-16T02:23:32.462Z,5.93
2023-04-16T02:24:32.451Z,5.94
2023-04-16T02:25:32.473Z,5.97
2023-04-16T02:26:32.493Z,5.93
2023-04-16T02:27:32.516Z,5.93
2023-04-16T02:28:32.528Z,5.94
2023-04-16T02:29:32.537Z,5.93
2023-04-16T02:30:32.539Z,5.94
2023-04-16T02:31:32.636Z,5.97
2023-04-16T02:32:32.642Z,5.94
2023-04-16T02:33:32.616Z,5.91
2023-04-16T02:34:32.600Z,5.90
2023-04-16T02:35:32.617Z,5.89
2023-04-16T02:36:32.642Z,5.90
2023-04-16T02:37:32.654Z,5.89
2023-04-16T02:38:32.692Z,5.89
2023-04-16T02:39:32.701Z,5.89
2023-04-16T02:40:32.708Z,5.91
2023-04-16T02:41:32.731Z,5.91
2023-04-16T02:42:32.753Z,5.91
2023-04-16T02:43:32.781Z,5.91
2023-04-16T02:44:32.793Z,5.89
2023-04-16T02:45:32.855Z,5.89
2023-04-16T02:46:32.815Z,5.90
2023-04-16T02:47:32.897Z,5.91
2023-04-16T02:48:32.880Z,5.89
2023-04-16T02:49:32.874Z,5.90
2023-04-16T02:50:32.890Z,5.90
2023-04-16T02:51:32.911Z,5.90
2023-04-16T02:52:32.926Z,5.89
2023-04-16T02:53:32.974Z,5.90
2023-04-16T02:54:32.964Z,5.90
2023-04-16T02:55:32.984Z,5.90
2023-04-16T02:56:32.994Z,5.89
2023-04-16T02:57:33.015Z,5.91
2023-04-16T02:58:33.061Z,5.87
2023-04-16T02:59:33.055Z,5.86
2023-04-16T03:00:33.080Z,5.84
2023-04-16T03:01:33.142Z,5.86
2023-04-16T03:02:33.186Z,5.84
2023-04-16T03:03:33.151Z,5.84
2023-04-16T03:04:33.205Z,5.84
2023-04-16T03:05:33.153Z,5.87
2023-04-16T03:06:33.169Z,5.86
2023-04-16T03:07:33.196Z,5.86
2023-04-16T03:08:33.259Z,5.86
2023-04-16T03:09:33.250Z,5.86
2023-04-16T03:10:33.242Z,5.89
2023-04-16T03:11:33.267Z,5.87
2023-04-16T03:12:33.272Z,5.89
2023-04-16T03:13:33.316Z,5.87
2023-04-16T03:14:33.305Z,5.89
2023-04-16T03:15:33.378Z,5.90
2023-04-16T03:16:33.347Z,5.93
2023-04-16T03:17:33.419Z,5.94
2023-04-16T03:18:33.395Z,5.90
2023-04-16T03:19:33.418Z,5.89
2023-04-16T03:20:33.406Z,5.89
2023-04-16T03:21:33.461Z,5.90
2023-04-16T03:22:33.466Z,5.90
2023-04-16T03:23:33.500Z,5.91
2023-04-16T03:24:33.469Z,5.91
2023-04-16T03:25:33.496Z,5.93
2023-04-16T03:26:33.513Z,5.94
2023-04-16T03:27:33.530Z,5.93
2023-04-16T03:28:33.591Z,5.93
2023-04-16T03:29:33.570Z,5.89
2023-04-16T03:30:33.585Z,5.89
2023-04-16T03:31:33.636Z,5.89
2023-04-16T03:32:33.681Z,5.89
2023-04-16T03:33:33.674Z,5.89
2023-04-16T03:34:33.652Z,5.90
2023-04-16T03:35:33.673Z,5.91
2023-04-16T03:36:33.688Z,5.94
2023-04-16T03:37:33.706Z,5.94
2023-04-16T03:38:33.733Z,5.94
2023-04-16T03:39:33.738Z,5.94
2023-04-16T03:40:33.753Z,5.94
2023-04-16T03:41:33.782Z,5.97
2023-04-16T03:42:33.784Z,5.94
2023-04-16T03:43:33.830Z,5.97
2023-04-16T03:44:33.814Z,5.94
2023-04-16T03:45:33.843Z,5.94
2023-04-16T03:46:33.873Z,5.93
2023-04-16T03:47:33.955Z,5.97
2023-04-16T03:48:33.914Z,5.97
2023-04-16T03:49:33.908Z,5.97
2023-04-16T03:50:33.923Z,5.98
2023-04-16T03:51:33.954Z,5.94
2023-04-16T03:52:33.956Z,5.98
2023-04-16T03:53:34.012Z,5.93
2023-04-16T03:54:33.997Z,5.94
2023-04-16T03:55:34.006Z,5.93
2023-04-16T03:56:34.027Z,5.94
2023-04-16T03:57:34.045Z,5.97
2023-04-16T03:58:34.084Z,5.94
2023-04-16T03:59:34.086Z,5.94
2023-04-16T04:00:34.082Z,5.94
2023-04-16T04:01:34.208Z,5.97
2023-04-16T04:02:34.315Z,5.91
2023-04-16T04:03:34.426Z,5.93
2023-04-16T04:04:34.275Z,5.91
2023-04-16T04:05:34.163Z,5.93
2023-04-16T04:06:34.186Z,5.93
2023-04-16T04:07:34.194Z,5.94
2023-04-16T04:08:34.254Z,5.97
2023-04-16T04:09:34.235Z,5.93
2023-04-16T04:10:34.265Z,5.94
2023-04-16T04:11:34.262Z,5.94
2023-04-16T04:12:34.275Z,5.93
2023-04-16T04:13:34.322Z,5.97
2023-04-16T04:14:34.316Z,5.97
2023-04-16T04:15:34.347Z,5.94
2023-04-16T04:16:34.942Z,5.97
2023-04-16T04:17:34.388Z,5.97
2023-04-16T04:18:34.409Z,5.94
2023-04-16T04:19:34.417Z,5.93
2023-04-16T04:20:34.417Z,5.97
2023-04-16T04:21:34.439Z,5.98
2023-04-16T04:22:34.464Z,5.98
2023-04-16T04:23:34.500Z,5.99
2023-04-16T04:24:34.494Z,5.99
2023-04-16T04:25:34.506Z,6.02
2023-04-16T04:26:34.604Z,6.04
2023-04-16T04:27:34.545Z,6.04
2023-04-16T04:28:34.588Z,6.02
2023-04-16T04:29:34.582Z,6.02
2023-04-16T04:30:34.595Z,6.04
2023-04-16T04:31:34.668Z,6.04
2023-04-16T04:32:34.646Z,6.02
2023-04-16T04:33:34.678Z,6.01
2023-04-16T04:34:34.669Z,6.02
2023-04-16T04:35:34.686Z,5.99
2023-04-16T04:36:34.698Z,6.02
2023-04-16T04:37:34.723Z,6.01
2023-04-16T04:38:34.758Z,6.02
2023-04-16T04:39:34.748Z,6.02
2023-04-16T04:40:34.760Z,6.04
2023-04-16T04:41:34.782Z,6.05
2023-04-16T04:42:34.796Z,6.08
2023-04-16T04:43:34.845Z,6.05
2023-04-16T04:44:34.832Z,6.05
2023-04-16T04:45:34.873Z,6.08
2023-04-16T04:46:34.873Z,6.09
2023-04-16T04:47:34.925Z,6.09
2023-04-16T04:48:34.940Z,6.09
2023-04-16T04:49:34.940Z,6.08
2023-04-16T04:50:34.946Z,6.07
2023-04-16T04:51:34.977Z,6.08
2023-04-16T04:52:34.972Z,6.09
2023-04-16T04:53:35.020Z,6.11
2023-04-16T04:54:34.996Z,6.12
2023-04-16T04:55:35.025Z,6.14
2023-04-16T04:56:35.035Z,6.12
2023-04-16T04:57:35.056Z,6.14
2023-04-16T04:58:35.094Z,6.14
2023-04-16T04:59:35.103Z,6.16
2023-04-16T05:00:35.107Z,6.16
2023-04-16T05:01:35.234Z,6.19
2023-04-16T05:02:35.220Z,6.19
2023-04-16T05:03:35.270Z,6.16
2023-04-16T05:04:35.214Z,6.12
2023-04-16T05:05:35.205Z,6.16
2023-04-16T05:06:35.205Z,6.19
2023-04-16T05:07:35.229Z,6.20
2023-04-16T05:08:35.286Z,6.24
2023-04-16T05:09:35.282Z,6.22
2023-04-16T05:10:35.289Z,6.26
2023-04-16T05:11:35.304Z,6.27
2023-04-16T05:12:35.320Z,6.24
2023-04-16T05:13:35.363Z,6.22
2023-04-16T05:14:35.349Z,6.26
2023-04-16T05:15:35.361Z,6.26
2023-04-16T05:16:35.409Z,6.27
2023-04-16T05:17:35.426Z,6.22
2023-04-16T05:18:35.450Z,6.24
2023-04-16T05:19:35.451Z,6.24
2023-04-16T05:20:35.456Z,6.22
2023-04-16T05:21:35.469Z,6.26
2023-04-16T05:22:35.504Z,6.24
2023-04-16T05:23:35.532Z,6.24
2023-04-16T05:24:35.523Z,6.28
2023-04-16T05:25:35.526Z,6.30
2023-04-16T05:26:35.558Z,6.31
2023-04-16T05:27:35.561Z,6.30
2023-04-16T05:28:35.606Z,6.31
2023-04-16T05:29:35.608Z,6.35
2023-04-16T05:30:35.652Z,6.36
2023-04-16T05:31:35.628Z,6.38
2023-04-16T05:32:35.655Z,6.39
2023-04-16T05:33:35.690Z,6.36
2023-04-16T05:34:35.690Z,6.36
2023-04-16T05:35:35.810Z,6.38
2023-04-16T05:36:35.749Z,6.41
2023-04-16T05:37:35.730Z,6.42
2023-04-16T05:38:35.777Z,6.42
2023-04-16T05:39:35.765Z,6.42
2023-04-16T05:40:35.776Z,6.45
2023-04-16T05:41:35.816Z,6.46
2023-04-16T05:42:35.887Z,6.48
2023-04-16T05:43:35.860Z,6.48
2023-04-16T05:44:35.864Z,6.46
2023-04-16T05:45:35.858Z,6.46
2023-04-16T05:46:35.964Z,6.49
2023-04-16T05:47:35.919Z,6.45
2023-04-16T05:48:35.930Z,6.48
2023-04-16T05:49:35.925Z,6.51
2023-04-16T05:50:35.939Z,6.52
2023-04-16T05:51:35.953Z,6.52
2023-04-16T05:52:35.979Z,6.52
2023-04-16T05:53:35.999Z,6.56
2023-04-16T05:54:36.005Z,6.56
2023-04-16T05:55:36.018Z,6.56
2023-04-16T05:56:36.037Z,6.57
2023-04-16T05:57:36.062Z,6.59
2023-04-16T05:58:36.092Z,6.56
2023-04-16T05:59:36.084Z,6.57
2023-04-16T06:00:36.105Z,6.60
2023-04-16T06:01:36.126Z,6.60
2023-04-16T06:02:36.257Z,6.62
2023-04-16T06:03:36.307Z,6.62
2023-04-16T06:04:36.164Z,6.63
2023-04-16T06:05:36.228Z,6.63
2023-04-16T06:06:36.188Z,6.63
2023-04-16T06:07:36.204Z,6.64
2023-04-16T06:08:36.256Z,6.67
2023-04-16T06:09:36.913Z,6.67
2023-04-16T06:10:36.260Z,6.64
2023-04-16T06:11:36.541Z,6.66
2023-04-16T06:12:36.302Z,6.66
2023-04-16T06:13:36.325Z,6.67
2023-04-16T06:14:36.327Z,6.70
2023-04-16T06:15:36.342Z,6.69
2023-04-16T06:16:36.364Z,6.74
2023-04-16T06:17:36.493Z,6.77
2023-04-16T06:18:36.402Z,6.77
2023-04-16T06:19:36.426Z,6.79
2023-04-16T06:20:36.455Z,6.79
2023-04-16T06:21:36.467Z,6.81
2023-04-16T06:22:36.479Z,6.84
2023-04-16T06:23:36.494Z,6.87
2023-04-16T06:24:36.516Z,6.85
2023-04-16T06:25:36.523Z,6.85
2023-04-16T06:26:36.557Z,6.84
2023-04-16T06:27:36.567Z,6.85
2023-04-16T06:28:36.587Z,6.87
2023-04-16T06:29:41.202Z,6.88
2023-04-16T06:30:36.630Z,6.87
2023-04-16T06:31:36.668Z,6.88
2023-04-16T06:32:36.713Z,6.92
2023-04-16T06:33:36.681Z,6.95
2023-04-16T06:34:36.705Z,6.97
2023-04-16T06:35:36.724Z,7.00
2023-04-16T06:36:36.755Z,7.03
2023-04-16T06:37:36.750Z,7.03
2023-04-16T06:38:36.775Z,7.05
2023-04-16T06:39:36.772Z,7.07
2023-04-16T06:40:36.794Z,7.13
2023-04-16T06:41:36.811Z,7.14
2023-04-16T06:42:36.849Z,7.14
2023-04-16T06:43:36.849Z,7.15
2023-04-16T06:44:36.888Z,7.17
2023-04-16T06:45:36.882Z,7.17
2023-04-16T06:46:36.970Z,7.14
2023-04-16T06:47:37.027Z,7.15
2023-04-16T06:48:36.965Z,7.14
2023-04-16T06:49:36.955Z,7.14
2023-04-16T06:50:36.982Z,7.15
2023-04-16T06:51:36.993Z,7.18
2023-04-16T06:52:37.024Z,7.20
2023-04-16T06:53:37.050Z,7.20
2023-04-16T06:54:37.056Z,7.25
2023-04-16T06:55:37.076Z,7.32
2023-04-16T06:56:37.097Z,7.36
2023-04-16T06:57:37.710Z,7.38
2023-04-16T06:58:37.165Z,7.38
2023-04-16T06:59:37.154Z,7.38
2023-04-16T07:00:37.205Z,7.40
2023-04-16T07:01:37.186Z,7.43
2023-04-16T07:02:37.311Z,7.43
2023-04-16T07:03:37.459Z,7.42
2023-04-16T07:04:37.251Z,7.36
2023-04-16T07:05:37.254Z,7.38
2023-04-16T07:06:37.404Z,7.40
2023-04-16T07:07:37.284Z,7.40
2023-04-16T07:08:37.329Z,7.39
2023-04-16T07:09:37.338Z,7.38
2023-04-16T07:10:37.338Z,7.42
2023-04-16T07:11:37.354Z,7.42
2023-04-16T07:12:37.364Z,7.43
2023-04-16T07:13:37.404Z,7.45
2023-04-16T07:14:37.407Z,7.47
2023-04-16T07:15:37.429Z,7.50
2023-04-16T07:16:37.570Z,7.48
2023-04-16T07:17:37.486Z,7.45
2023-04-16T07:18:37.495Z,7.42
2023-04-16T07:19:37.495Z,7.42
2023-04-16T07:20:37.508Z,7.45
2023-04-16T07:21:37.526Z,7.47
2023-04-16T07:22:37.560Z,7.45
2023-04-16T07:23:37.686Z,7.48
2023-04-16T07:24:37.585Z,7.51
2023-04-16T07:25:37.598Z,7.53
2023-04-16T07:26:37.619Z,7.53
2023-04-16T07:27:37.623Z,7.54
2023-04-16T07:28:37.664Z,7.56
2023-04-16T07:29:37.659Z,7.56
2023-04-16T07:30:37.688Z,7.58
2023-04-16T07:31:37.734Z,7.61
2023-04-16T07:32:37.839Z,7.63
2023-04-16T07:33:37.766Z,7.63
2023-04-16T07:34:37.750Z,7.66
2023-04-16T07:35:37.772Z,7.63
2023-04-16T07:36:37.790Z,7.58
2023-04-16T07:37:37.844Z,7.56
2023-04-16T07:38:37.840Z,7.54
2023-04-16T07:39:37.838Z,7.53
2023-04-16T07:40:37.860Z,7.53
2023-04-16T07:41:37.876Z,7.50
2023-04-16T07:42:37.893Z,7.48
2023-04-16T07:43:37.926Z,7.43
2023-04-16T07:44:37.937Z,7.42
2023-04-16T07:45:38.008Z,7.42
2023-04-16T07:46:46.350Z,7.43
2023-04-16T07:47:38.048Z,7.45
2023-04-16T07:48:38.021Z,7.45
2023-04-16T07:49:38.016Z,7.48
2023-04-16T07:50:38.042Z,7.48
2023-04-16T07:51:38.051Z,7.50
2023-04-16T07:52:38.068Z,7.51
2023-04-16T07:53:38.102Z,7.54
2023-04-16T07:54:38.109Z,7.56
2023-04-16T07:55:38.118Z,7.58
2023-04-16T07:56:38.144Z,7.58
2023-04-16T07:57:38.156Z,7.60
2023-04-16T07:58:38.197Z,7.63
2023-04-16T07:59:38.183Z,7.66
2023-04-16T08:00:38.202Z,7.70
2023-04-16T08:01:38.217Z,7.72
2023-04-16T08:02:38.566Z,7.69
2023-04-16T08:03:38.554Z,7.69
2023-04-16T08:04:38.523Z,7.70
2023-04-16T08:05:38.291Z,7.75
2023-04-16T08:06:38.328Z,7.76
2023-04-16T08:07:38.328Z,7.79
2023-04-16T08:08:38.369Z,7.80
2023-04-16T08:09:38.388Z,7.90
2023-04-16T08:10:38.374Z,7.95
2023-04-16T08:11:38.398Z,8.01
2023-04-16T08:12:38.420Z,8.10
2023-04-16T08:13:38.451Z,8.15
2023-04-16T08:14:38.485Z,8.23
2023-04-16T08:15:38.540Z,8.30
2023-04-16T08:16:38.505Z,8.34
2023-04-16T08:17:38.550Z,8.37
2023-04-16T08:18:38.526Z,8.37
2023-04-16T08:19:38.534Z,8.37
2023-04-16T08:20:38.540Z,8.42
2023-04-16T08:21:38.567Z,8.46
2023-04-16T08:22:38.585Z,8.51
2023-04-16T08:23:38.622Z,8.55
2023-04-16T08:24:38.618Z,8.56
2023-04-16T08:25:38.639Z,8.58
2023-04-16T08:26:38.664Z,8.64
2023-04-16T08:27:38.677Z,8.71
2023-04-16T08:28:38.719Z,8.76
2023-04-16T08:29:38.713Z,8.81
2023-04-16T08:30:38.738Z,8.81
2023-04-16T08:31:38.810Z,8.91
2023-04-16T08:32:38.857Z,9.02
2023-04-16T08:33:38.815Z,9.10
2023-04-16T08:34:38.810Z,9.08
2023-04-16T08:35:38.826Z,9.10
2023-04-16T08:36:38.833Z,9.21
2023-04-16T08:37:38.850Z,9.18
2023-04-16T08:38:38.892Z,9.19
2023-04-16T08:39:38.908Z,9.22
2023-04-16T08:40:38.910Z,9.28
2023-04-16T08:41:38.928Z,9.31
2023-04-16T08:42:38.945Z,9.36
2023-04-16T08:43:38.980Z,9.39
2023-04-16T08:44:38.995Z,9.41
2023-04-16T08:45:38.998Z,9.48
2023-04-16T08:46:39.083Z,9.51
2023-04-16T08:47:39.104Z,9.58
2023-04-16T08:48:39.078Z,9.61
2023-04-16T08:49:39.065Z,9.58
2023-04-16T08:50:39.115Z,9.58
2023-04-16T08:51:39.112Z,9.50
2023-04-16T08:52:39.133Z,9.50
2023-04-16T08:53:39.170Z,9.56
2023-04-16T08:54:39.185Z,9.54
2023-04-16T08:55:39.186Z,9.56
2023-04-16T08:56:40.297Z,9.55
2023-04-16T08:57:39.208Z,9.51
2023-04-16T08:58:39.243Z,9.51
2023-04-16T08:59:39.244Z,9.55
2023-04-16T09:00:39.263Z,9.54
2023-04-16T09:01:39.311Z,9.56
2023-04-16T09:02:39.566Z,9.58
2023-04-16T09:03:39.456Z,9.59
2023-04-16T09:04:39.488Z,9.56
2023-04-16T09:05:39.373Z,9.59
2023-04-16T09:06:39.389Z,9.64
2023-04-16T09:07:39.413Z,9.69
2023-04-16T09:08:39.463Z,9.66
2023-04-16T09:09:39.448Z,9.69
2023-04-16T09:10:39.457Z,9.66
2023-04-16T09:11:39.467Z,9.68
2023-04-16T09:12:39.504Z,9.65
2023-04-16T09:13:39.531Z,9.69
2023-04-16T09:14:39.539Z,9.76
2023-04-16T09:15:39.568Z,9.79
2023-04-16T09:16:39.701Z,9.76
2023-04-16T09:17:39.605Z,9.76
2023-04-16T09:18:39.639Z,9.74
2023-04-16T09:19:39.625Z,9.72
2023-04-16T09:20:39.668Z,9.76
2023-04-16T09:21:39.663Z,9.74
2023-04-16T09:22:39.682Z,9.69
2023-04-16T09:23:39.722Z,9.73
2023-04-16T09:24:39.726Z,9.77
2023-04-16T09:25:39.728Z,9.74
2023-04-16T09:26:39.749Z,9.76
2023-04-16T09:27:39.769Z,9.83
2023-04-16T09:28:39.805Z,9.84
2023-04-16T09:29:39.823Z,9.84
2023-04-16T09:30:39.822Z,9.84
2023-04-16T09:31:39.913Z,9.89
2023-04-16T09:32:39.885Z,9.92
2023-04-16T09:33:39.905Z,9.94
2023-04-16T09:34:39.884Z,9.95
2023-04-16T09:35:39.910Z,9.99
2023-04-16T09:36:39.919Z,10.02
2023-04-16T09:37:39.939Z,10.10
2023-04-16T09:38:39.977Z,10.10
2023-04-16T09:39:39.963Z,10.12
2023-04-16T09:40:39.976Z,10.05
2023-04-16T09:41:39.998Z,9.99
2023-04-16T09:42:40.016Z,9.97
2023-04-16T09:43:40.071Z,9.97
2023-04-16T09:44:40.075Z,10.01
2023-04-16T09:45:40.133Z,10.01
2023-04-16T09:46:40.083Z,10.01
2023-04-16T09:47:40.169Z,10.02
2023-04-16T09:48:40.141Z,10.05
2023-04-16T09:49:40.124Z,10.07
2023-04-16T09:50:40.133Z,10.10
2023-04-16T09:51:40.154Z,10.10
2023-04-16T09:52:40.176Z,10.13
2023-04-16T09:53:40.213Z,10.09
2023-04-16T09:54:40.192Z,10.12
2023-04-16T09:55:40.215Z,10.12
2023-04-16T09:56:40.234Z,10.17
2023-04-16T09:57:40.250Z,10.25
2023-04-16T09:58:40.275Z,10.26
2023-04-16T09:59:40.278Z,10.30
2023-04-16T10:00:43.554Z,10.34
2023-04-16T10:01:40.420Z,10.37
2023-04-16T10:02:40.463Z,10.40
2023-04-16T10:03:40.543Z,10.41
2023-04-16T10:04:40.369Z,10.48
2023-04-16T10:05:40.382Z,10.46
2023-04-16T10:06:40.396Z,10.46
2023-04-16T10:07:40.407Z,10.46
2023-04-16T10:08:40.445Z,10.53
2023-04-16T10:09:40.442Z,10.54
2023-04-16T10:10:40.470Z,10.60
2023-04-16T10:11:40.482Z,10.61
2023-04-16T10:12:40.492Z,10.63
2023-04-16T10:13:40.523Z,10.63
2023-04-16T10:14:40.517Z,10.61
2023-04-16T10:15:40.537Z,10.49
2023-04-16T10:16:40.599Z,10.46
2023-04-16T10:17:40.600Z,10.44
2023-04-16T10:18:40.599Z,10.41
2023-04-16T10:19:40.601Z,10.33
2023-04-16T10:20:40.612Z,10.25
2023-04-16T10:21:40.647Z,10.23
2023-04-16T10:22:40.651Z,10.15
2023-04-16T10:23:40.706Z,9.94
2023-04-16T10:24:40.688Z,9.84
2023-04-16T10:25:40.702Z,9.84
2023-04-16T10:26:40.717Z,9.86
2023-04-16T10:27:40.763Z,9.87
2023-04-16T10:28:40.782Z,9.82
2023-04-16T10:29:40.777Z,9.82
2023-04-16T10:30:40.825Z,9.79
2023-04-16T10:31:40.816Z,9.79
2023-04-16T10:32:40.857Z,9.77
2023-04-16T10:33:40.867Z,9.72
2023-04-16T10:34:40.858Z,9.69
2023-04-16T10:35:40.882Z,9.66
2023-04-16T10:36:40.903Z,9.65
2023-04-16T10:37:40.914Z,9.64
2023-04-16T10:38:40.960Z,9.64
2023-04-16T10:39:40.956Z,9.59
2023-04-16T10:40:40.957Z,9.58
2023-04-16T10:41:40.978Z,9.54
2023-04-16T10:42:40.996Z,9.48
2023-04-16T10:43:41.034Z,9.44
2023-04-16T10:44:44.284Z,9.40
2023-04-16T10:45:41.055Z,9.39
2023-04-16T10:46:41.096Z,9.39
2023-04-16T10:47:41.137Z,9.37
2023-04-16T10:48:49.750Z,9.29
2023-04-16T10:49:41.149Z,9.29
2023-04-16T10:50:41.124Z,9.31
2023-04-16T10:51:41.164Z,9.29
2023-04-16T10:52:41.159Z,9.31
2023-04-16T10:53:41.189Z,9.31
2023-04-16T10:54:41.188Z,9.32
2023-04-16T10:55:41.232Z,9.34
2023-04-16T10:56:41.233Z,9.28
2023-04-16T10:57:41.247Z,9.28
2023-04-16T10:58:41.285Z,9.29
2023-04-16T10:59:41.279Z,9.29
2023-04-16T11:00:41.295Z,9.34
2023-04-16T11:01:41.374Z,9.32
2023-04-16T11:02:41.562Z,9.32
2023-04-16T11:03:41.539Z,9.39
2023-04-16T11:04:41.439Z,9.40
2023-04-16T11:05:41.384Z,9.39
2023-04-16T11:06:41.390Z,9.47
2023-04-16T11:07:41.416Z,9.50
2023-04-16T11:08:53.848Z,9.54
2023-04-16T11:09:41.455Z,9.56
2023-04-16T11:10:41.458Z,9.51
2023-04-16T11:11:41.477Z,9.46
2023-04-16T11:12:41.514Z,9.41
2023-04-16T11:13:43.526Z,9.43
2023-04-16T11:14:41.519Z,9.40
2023-04-16T11:15:41.560Z,9.40
2023-04-16T11:16:41.548Z,9.39
2023-04-16T11:17:41.629Z,9.34
2023-04-16T11:18:41.662Z,9.37
2023-04-16T11:19:41.613Z,9.32
2023-04-16T11:20:41.629Z,9.26
2023-04-16T11:21:41.657Z,9.28
2023-04-16T11:22:41.666Z,9.29
2023-04-16T11:23:41.709Z,9.29
2023-04-16T11:24:41.704Z,9.19
2023-04-16T11:25:41.724Z,9.16
2023-04-16T11:26:41.737Z,9.18
2023-04-16T11:27:41.753Z,9.19
2023-04-16T11:28:41.792Z,9.18
2023-04-16T11:29:41.785Z,9.11
2023-04-16T11:30:41.848Z,9.11
2023-04-16T11:31:41.823Z,9.14
2023-04-16T11:32:41.883Z,9.16
2023-04-16T11:33:41.882Z,9.21
2023-04-16T11:34:41.881Z,9.25
2023-04-16T11:35:41.901Z,9.26
2023-04-16T11:36:41.920Z,9.29
2023-04-16T11:37:41.961Z,9.34
2023-04-16T11:38:41.972Z,9.36
2023-04-16T11:39:41.982Z,9.41
2023-04-16T11:40:41.997Z,9.48
2023-04-16T11:41:42.021Z,9.55
2023-04-16T11:42:42.133Z,9.47
2023-04-16T11:43:42.074Z,9.48
2023-04-16T11:44:42.146Z,9.50
2023-04-16T11:45:42.086Z,9.44
2023-04-16T11:46:42.119Z,9.43
2023-04-16T11:47:42.137Z,9.51
2023-04-16T11:48:42.157Z,9.55
2023-04-16T11:49:42.159Z,9.58
2023-04-16T11:50:42.170Z,9.61
2023-04-16T11:51:42.207Z,9.65
2023-04-16T11:52:42.205Z,9.69
2023-04-16T11:53:42.239Z,9.80
2023-04-16T11:54:42.254Z,9.89
2023-04-16T11:55:42.274Z,9.95
2023-04-16T11:56:42.281Z,10.05
2023-04-16T11:57:42.293Z,10.16
2023-04-16T11:58:43.328Z,10.17
2023-04-16T12:00:02.297Z,10.16
2023-04-16T12:00:42.333Z,10.25
2023-04-16T12:01:42.434Z,10.28
2023-04-16T12:02:42.446Z,10.34
2023-04-16T12:03:42.720Z,10.48
2023-04-16T12:04:42.441Z,10.60
2023-04-16T12:05:42.422Z,10.54
2023-04-16T12:06:42.414Z,10.57
2023-04-16T12:07:42.431Z,10.60
2023-04-16T12:08:42.465Z,10.64
2023-04-16T12:09:42.469Z,10.79
2023-04-16T12:10:42.466Z,10.89
2023-04-16T12:11:42.489Z,11.04
2023-04-16T12:12:42.504Z,11.05
2023-04-16T12:13:42.574Z,11.05
2023-04-16T12:14:42.524Z,11.17
2023-04-16T12:15:42.553Z,11.27
2023-04-16T12:16:42.589Z,11.11
2023-04-16T12:17:42.590Z,10.94
2023-04-16T12:18:42.615Z,10.53
2023-04-16T12:19:42.612Z,10.26
2023-04-16T12:20:42.610Z,10.19
2023-04-16T12:21:42.636Z,10.19
2023-04-16T12:22:42.637Z,10.20
2023-04-16T12:23:42.687Z,10.22
2023-04-16T12:24:42.662Z,10.16
2023-04-16T12:25:42.681Z,10.20
2023-04-16T12:26:42.689Z,10.30
2023-04-16T12:27:42.715Z,10.28
2023-04-16T12:28:42.748Z,10.33
2023-04-16T12:29:42.743Z,10.46
2023-04-16T12:30:42.775Z,10.54
2023-04-16T12:31:42.777Z,10.63
2023-04-16T12:32:42.824Z,10.69
2023-04-16T12:33:42.827Z,10.78
2023-04-16T12:34:48.430Z,10.93
2023-04-16T12:35:42.834Z,11.04
2023-04-16T12:36:42.841Z,11.02
2023-04-16T12:37:42.868Z,11.05
2023-04-16T12:38:42.916Z,11.05
2023-04-16T12:39:42.899Z,10.96
2023-04-16T12:40:42.945Z,11.00
2023-04-16T12:41:42.950Z,10.97
2023-04-16T12:42:42.935Z,10.92
2023-04-16T12:43:42.971Z,10.97
2023-04-16T12:44:42.978Z,11.05
2023-04-16T12:45:42.982Z,11.11
2023-04-16T12:46:43.110Z,11.19
2023-04-16T12:47:43.024Z,11.22
2023-04-16T12:48:43.047Z,11.29
2023-04-16T12:49:43.036Z,11.32
2023-04-16T12:50:43.048Z,11.41
2023-04-16T12:51:43.080Z,11.15
2023-04-16T12:52:43.096Z,11.11
2023-04-16T12:53:43.133Z,11.04
2023-04-16T12:54:43.119Z,10.90
2023-04-16T12:55:43.164Z,10.76
2023-04-16T12:56:43.149Z,10.68
2023-04-16T12:57:43.160Z,10.69
2023-04-16T12:58:43.198Z,10.64
2023-04-16T12:59:43.193Z,10.63
2023-04-16T13:00:43.221Z,10.53
2023-04-16T13:01:43.289Z,10.53
2023-04-16T13:02:43.348Z,10.44
2023-04-16T13:03:43.376Z,10.46
2023-04-16T13:04:43.304Z,10.56
2023-04-16T13:05:43.288Z,10.41
2023-04-16T13:06:43.284Z,10.46
2023-04-16T13:07:43.319Z,10.56
2023-04-16T13:08:43.333Z,10.67
2023-04-16T13:09:43.341Z,10.79
2023-04-16T13:10:43.352Z,10.87
2023-04-16T13:11:43.374Z,10.84
2023-04-16T13:12:43.375Z,10.90
2023-04-16T13:13:43.408Z,10.97
2023-04-16T13:14:45.095Z,11.08